Time;durP1;ratioP1;P1;durP2;ratioP2;P2;SDS_P1;SDS_P2;PMS_P1;PMS_P2;Temp;Humidity;BMP_temperature;BMP_pressure;BME280_temperature;BME280_humidity;BME280_pressure;Samples;Min_cycle;Max_cycle;Signal;HPM_P1;HPM_P2
2024/03/15 00:01:01;;;;;;;2.35;2.10;;;;;;;22.07;38.03;99825.06;4454205;28;20051;-48
2024/03/15 00:03:11;;;;;;;2.67;2.33;;;;;;;22.07;38.02;99830.81;4453987;28;20079;-50
2024/03/15 00:05:23;;;;;;;2.40;2.00;;;;;;;22.07;37.77;99830.00;4452506;28;20031;-49
2024/03/15 00:07:34;;;;;;;2.30;2.10;;;;;;;22.07;37.62;99830.81;4453692;28;20090;-49
2024/03/15 00:09:50;;;;;;;2.22;2.03;;;;;;;22.07;37.88;99822.19;4453691;28;20246;-49
2024/03/15 00:12:01;;;;;;;2.33;2.13;;;;;;;22.05;37.88;99821.78;4452676;28;20142;-49
2024/03/15 00:14:11;;;;;;;2.22;2.00;;;;;;;22.06;37.90;99816.84;4456168;28;20049;-50
2024/03/15 00:16:21;;;;;;;2.30;2.10;;;;;;;22.07;38.01;99827.13;4456742;28;20142;-49
2024/03/15 00:18:36;;;;;;;2.50;2.20;;;;;;;22.06;37.96;99820.56;4457164;28;20041;-49
2024/03/15 00:20:46;;;;;;;2.65;2.20;;;;;;;22.03;38.14;99818.47;4456913;28;20043;-49
2024/03/15 00:22:56;;;;;;;2.00;1.80;;;;;;;22.06;38.21;99817.69;4456925;28;20023;-49
2024/03/15 00:25:08;;;;;;;2.30;2.10;;;;;;;22.05;38.24;99824.66;4456759;28;20518;-46
2024/03/15 00:27:19;;;;;;;2.10;1.90;;;;;;;22.05;37.88;99821.78;4456840;28;20102;-46
2024/03/15 00:29:30;;;;;;;2.45;1.95;;;;;;;22.04;37.97;99823.00;4455454;28;20051;-47
2024/03/15 00:31:40;;;;;;;2.40;2.20;;;;;;;22.05;38.12;99815.19;4455502;28;20174;-47
2024/03/15 00:33:50;;;;;;;2.33;2.13;;;;;;;22.04;38.42;99814.38;4456051;28;20421;-47
2024/03/15 00:36:01;;;;;;;2.88;2.30;;;;;;;22.04;38.47;99819.31;4456513;28;20026;-48
2024/03/15 00:38:11;;;;;;;2.20;2.00;;;;;;;22.04;38.22;99814.38;4456820;28;20102;-47
2024/03/15 00:40:21;;;;;;;2.47;2.03;;;;;;;22.05;38.80;99816.03;4471537;28;20090;-48
2024/03/15 00:42:32;;;;;;;2.65;1.98;;;;;;;22.04;38.28;99811.50;4456529;28;20051;-48
2024/03/15 00:44:43;;;;;;;2.15;1.92;;;;;;;22.04;38.69;99808.63;4471009;28;20039;-48
2024/03/15 00:46:53;;;;;;;2.25;2.00;;;;;;;22.03;38.28;99806.97;4455274;28;20031;-48
2024/03/15 00:49:04;;;;;;;2.65;2.10;;;;;;;22.04;38.31;99814.38;4456666;28;20127;-49
2024/03/15 00:51:15;;;;;;;4.10;2.45;;;;;;;22.03;38.43;99809.00;4456649;28;20104;-47
2024/03/15 00:53:25;;;;;;;2.45;2.08;;;;;;;22.03;38.30;99809.84;4456739;28;20098;-48
2024/03/15 00:55:36;;;;;;;2.47;1.95;;;;;;;22.03;38.49;99817.63;4456295;28;20031;-48
2024/03/15 00:57:46;;;;;;;3.17;2.00;;;;;;;22.02;38.58;99816.00;4456497;28;20118;-50
2024/03/15 00:59:56;;;;;;;2.20;2.00;;;;;;;22.02;38.58;99810.25;4456520;28;20039;-49
2024/03/15 01:02:07;;;;;;;2.22;1.90;;;;;;;22.01;38.58;99809.41;4470976;28;20058;-48
2024/03/15 01:04:17;;;;;;;2.53;2.00;;;;;;;22.02;38.66;99816.81;4456155;28;20050;-48
2024/03/15 01:06:28;;;;;;;2.72;1.80;;;;;;;22.02;38.72;99810.25;4456806;28;20035;-48
2024/03/15 01:08:38;;;;;;;2.33;2.10;;;;;;;22.02;38.24;99810.25;4456338;28;20043;-47
2024/03/15 01:10:49;;;;;;;2.35;2.03;;;;;;;22.01;38.25;99814.31;4455849;28;24666;-48
2024/03/15 01:12:59;;;;;;;2.13;1.75;;;;;;;22.01;38.60;99805.69;4456495;28;20031;-48
2024/03/15 01:15:09;;;;;;;1.90;1.80;;;;;;;22.01;38.44;99803.66;4456095;28;20039;-48
2024/03/15 01:17:20;;;;;;;2.00;1.80;;;;;;;21.98;38.10;99803.63;4454555;28;20039;-48
2024/03/15 01:19:32;;;;;;;1.80;1.70;;;;;;;21.99;38.45;99797.47;4456086;28;20481;-48
2024/03/15 01:21:42;;;;;;;1.98;1.80;;;;;;;22.00;38.29;99796.28;4455979;28;20039;-48
2024/03/15 01:23:54;;;;;;;2.10;1.70;;;;;;;21.99;37.74;99800.34;4455873;28;20031;-48
2024/03/15 01:26:05;;;;;;;1.95;1.67;;;;;;;21.98;38.55;99787.22;4455877;28;20046;-48
2024/03/15 01:28:16;;;;;;;1.92;1.70;;;;;;;21.99;38.46;99797.47;4449863;28;20027;-48
2024/03/15 01:30:26;;;;;;;1.58;1.48;;;;;;;21.99;38.12;99788.06;4455709;28;20044;-47
2024/03/15 01:32:36;;;;;;;1.90;1.70;;;;;;;21.98;38.11;99792.97;4455602;28;20039;-47
2024/03/15 01:34:47;;;;;;;2.03;1.70;;;;;;;21.98;38.37;99786.38;4455617;28;20102;-48
2024/03/15 01:36:57;;;;;;;1.75;1.50;;;;;;;21.97;38.27;99797.06;4456012;28;20401;-48
2024/03/15 01:39:07;;;;;;;2.10;1.60;;;;;;;21.97;37.78;99785.59;4454595;28;20039;-48
2024/03/15 01:41:18;;;;;;;1.70;1.60;;;;;;;21.98;37.96;99786.38;4456114;28;20037;-47
2024/03/15 01:43:28;;;;;;;1.90;1.70;;;;;;;21.97;38.08;99776.13;4455959;28;20039;-48
2024/03/15 01:45:40;;;;;;;1.90;1.60;;;;;;;21.97;37.92;99779.00;4455277;28;20040;-49
2024/03/15 01:47:50;;;;;;;1.88;1.70;;;;;;;21.96;37.87;99778.16;4455841;28;20126;-49
2024/03/15 01:50:01;;;;;;;1.55;1.30;;;;;;;21.96;37.73;99772.41;4455581;28;20094;-49
2024/03/15 01:52:13;;;;;;;2.42;1.80;;;;;;;21.96;37.95;99778.16;4455830;28;20042;-50
2024/03/15 01:54:23;;;;;;;1.52;1.42;;;;;;;21.96;37.64;99772.41;4455359;28;20998;-49
2024/03/15 01:56:34;;;;;;;2.05;1.60;;;;;;;21.95;38.00;99773.66;4455657;28;20122;-47
2024/03/15 01:58:45;;;;;;;1.60;1.42;;;;;;;21.97;38.15;99776.97;4455527;28;20039;-48
2024/03/15 02:00:56;;;;;;;1.60;1.50;;;;;;;21.95;38.21;99765.03;4470162;28;20583;-49
2024/03/15 02:03:08;;;;;;;1.85;1.63;;;;;;;21.95;38.24;99762.16;4455850;28;20027;-48
2024/03/15 02:05:20;;;;;;;1.95;1.60;;;;;;;21.95;37.71;99770.78;4455093;28;20043;-49
2024/03/15 02:07:30;;;;;;;1.80;1.40;;;;;;;21.95;37.93;99764.19;4455679;28;20050;-47
2024/03/15 02:09:40;;;;;;;2.10;1.58;;;;;;;21.94;37.86;99763.38;4455361;28;20397;-49
2024/03/15 02:11:51;;;;;;;2.20;1.60;;;;;;;21.93;37.70;99764.59;4455432;28;20103;-47
2024/03/15 02:14:03;;;;;;;1.75;1.60;;;;;;;21.94;37.61;99765.44;4454895;28;20039;-47
2024/03/15 02:16:14;;;;;;;1.70;1.50;;;;;;;21.93;37.85;99767.47;4455323;28;20042;-48
2024/03/15 02:18:24;;;;;;;2.20;1.38;;;;;;;21.92;38.02;99777.31;4455324;28;20159;-48
2024/03/15 02:20:35;;;;;;;2.10;1.70;;;;;;;21.93;38.21;99773.22;4470260;28;20049;-48
2024/03/15 02:22:45;;;;;;;1.88;1.50;;;;;;;21.93;38.05;99760.88;4455396;28;20101;-48
2024/03/15 02:24:56;;;;;;;1.88;1.60;;;;;;;21.92;37.75;99762.13;4455172;28;20035;-48
2024/03/15 02:27:08;;;;;;;2.05;1.60;;;;;;;21.93;37.69;99766.63;4455363;28;20079;-48
2024/03/15 02:29:19;;;;;;;1.75;1.50;;;;;;;21.92;38.15;99767.88;4453760;28;20146;-47
2024/03/15 02:31:30;;;;;;;1.92;1.30;;;;;;;21.90;37.72;99755.94;4455124;28;20043;-48
2024/03/15 02:33:40;;;;;;;1.70;1.60;;;;;;;21.91;37.78;99763.34;4455076;28;20458;-48
2024/03/15 02:35:51;;;;;;;1.50;1.40;;;;;;;21.92;37.76;99765.81;4454382;28;20059;-49
2024/03/15 02:38:01;;;;;;;1.85;1.45;;;;;;;21.91;37.58;99763.34;4455171;28;20039;-50
2024/03/15 02:40:12;;;;;;;2.17;1.63;;;;;;;21.91;37.55;99755.53;4454820;28;20054;-47
2024/03/15 02:42:22;;;;;;;1.55;1.30;;;;;;;21.89;37.32;99755.13;4455115;28;20039;-48
2024/03/15 02:44:33;;;;;;;1.60;1.50;;;;;;;21.90;37.81;99762.50;4455269;28;20024;-49
2024/03/15 02:46:43;;;;;;;1.50;1.40;;;;;;;21.90;37.57;99761.69;4454868;28;20035;-48
2024/03/15 02:48:53;;;;;;;2.53;1.70;;;;;;;21.89;37.43;99755.13;4454918;28;20039;-48
2024/03/15 02:51:07;;;;;;;1.63;1.50;;;;;;;21.89;37.85;99755.13;4454854;28;24588;-48
2024/03/15 02:53:19;;;;;;;1.80;1.40;;;;;;;21.89;37.56;99749.38;4455240;28;20118;-48
2024/03/15 02:55:29;;;;;;;1.58;1.48;;;;;;;21.90;37.82;99750.19;4454785;28;20043;-48
2024/03/15 02:57:40;;;;;;;2.05;1.50;;;;;;;21.88;37.53;99750.59;4454664;28;20047;-49
2024/03/15 02:59:50;;;;;;;1.60;1.35;;;;;;;21.88;37.41;99753.47;4454202;28;20048;-48
2024/03/15 03:02:00;;;;;;;1.45;1.30;;;;;;;21.88;37.18;99753.47;4454976;28;20076;-47
2024/03/15 03:04:11;;;;;;;1.58;1.38;;;;;;;21.88;37.37;99752.66;4454799;28;20494;-48
2024/03/15 03:06:22;;;;;;;1.75;1.40;;;;;;;21.88;37.57;99758.41;4454711;28;20042;-48
2024/03/15 03:08:36;;;;;;;1.55;1.40;;;;;;;21.87;37.63;99754.69;4454938;28;20085;-48
2024/03/15 03:10:46;;;;;;;2.15;1.48;;;;;;;21.87;37.25;99757.56;4454666;28;20829;-47
2024/03/15 03:12:57;;;;;;;1.65;1.42;;;;;;;21.87;37.12;99763.31;4454656;28;20035;-48
2024/03/15 03:15:07;;;;;;;2.28;1.55;;;;;;;21.87;37.15;99765.34;4453431;28;20040;-48
2024/03/15 03:17:18;;;;;;;1.67;1.58;;;;;;;21.86;37.31;99769.44;4453342;28;20075;-48
2024/03/15 03:19:28;;;;;;;1.65;1.50;;;;;;;21.86;37.35;99761.66;4454380;28;20044;-47
2024/03/15 03:21:38;;;;;;;1.67;1.33;;;;;;;21.87;37.35;99762.47;4455084;28;20066;-49
2024/03/15 03:23:49;;;;;;;1.80;1.52;;;;;;;21.85;37.55;99762.06;4454707;28;20513;-49
2024/03/15 03:25:59;;;;;;;2.00;1.40;;;;;;;21.86;37.33;99760.84;4452933;28;20031;-48
2024/03/15 03:28:09;;;;;;;1.95;1.50;;;;;;;21.83;37.57;99748.09;4454800;28;20429;-47
2024/03/15 03:30:21;;;;;;;2.35;1.50;;;;;;;21.86;37.35;99749.34;4454497;28;20520;-48
2024/03/15 03:32:32;;;;;;;1.95;1.40;;;;;;;21.84;37.37;99751.78;4454604;28;20039;-49
2024/03/15 03:34:42;;;;;;;1.77;1.35;;;;;;;21.85;37.35;99747.69;4450230;28;21321;-47
2024/03/15 03:36:52;;;;;;;1.60;1.30;;;;;;;21.85;37.45;99750.56;4453872;28;20566;-47
2024/03/15 03:39:04;;;;;;;1.45;1.20;;;;;;;21.84;37.68;99741.13;4454703;28;20035;-47
2024/03/15 03:41:15;;;;;;;1.63;1.42;;;;;;;21.84;37.15;99743.16;4452540;28;20580;-48
2024/03/15 03:43:25;;;;;;;1.58;1.27;;;;;;;21.83;37.14;99748.09;4454393;28;20027;-47
2024/03/15 03:45:36;;;;;;;2.00;1.48;;;;;;;21.83;37.37;99744.41;4454308;28;20047;-50
2024/03/15 03:47:49;;;;;;;2.00;1.50;;;;;;;21.83;37.48;99753.84;4454440;28;20087;-49
2024/03/15 03:49:59;;;;;;;1.13;1.00;;;;;;;21.82;37.31;99749.31;4457208;28;20142;-49
2024/03/15 03:52:10;;;;;;;1.55;1.45;;;;;;;21.83;37.51;99739.47;4457336;28;20122;-48
2024/03/15 03:54:20;;;;;;;1.75;1.30;;;;;;;21.83;37.67;99750.97;4455284;28;20032;-48
2024/03/15 03:56:30;;;;;;;1.38;1.27;;;;;;;21.83;37.55;99747.25;4457628;28;20073;-48
2024/03/15 03:58:41;;;;;;;1.70;1.40;;;;;;;21.82;37.78;99752.19;4456754;28;20944;-48
2024/03/15 04:00:51;;;;;;;1.80;1.40;;;;;;;21.82;37.75;99754.22;4455772;28;20070;-48
2024/03/15 04:03:04;;;;;;;2.08;1.50;;;;;;;21.82;37.17;99748.47;4471887;28;20043;-48
2024/03/15 04:05:20;;;;;;;1.65;1.33;;;;;;;21.81;37.60;99750.53;4456705;28;20097;-47
2024/03/15 04:07:31;;;;;;;1.43;1.20;;;;;;;21.80;37.30;99746.00;4457138;28;20047;-47
2024/03/15 04:09:41;;;;;;;1.63;1.30;;;;;;;21.81;37.79;99753.41;4456769;28;20317;-48
2024/03/15 04:11:51;;;;;;;1.42;1.30;;;;;;;21.81;37.55;99741.91;4456933;28;20760;-50
2024/03/15 04:14:03;;;;;;;1.92;1.40;;;;;;;21.80;37.50;99751.75;4456577;28;20066;-48
2024/03/15 04:16:14;;;;;;;1.50;1.40;;;;;;;21.76;37.60;99739.41;4457181;28;20039;-47
2024/03/15 04:18:25;;;;;;;1.95;1.40;;;;;;;21.80;37.88;99751.75;4457229;28;20078;-48
2024/03/15 04:20:39;;;;;;;1.38;1.25;;;;;;;21.79;38.03;99752.13;4456838;28;20119;-48
2024/03/15 04:22:50;;;;;;;1.45;1.25;;;;;;;21.79;38.12;99750.09;4456928;28;20035;-48
2024/03/15 04:25:00;;;;;;;1.63;1.40;;;;;;;21.79;37.85;99750.09;4456702;28;20140;-50
2024/03/15 04:27:11;;;;;;;1.60;1.30;;;;;;;21.79;38.11;99757.88;4456557;28;20499;-49
2024/03/15 04:29:24;;;;;;;1.80;1.52;;;;;;;21.79;37.82;99752.97;4457018;28;20062;-48
2024/03/15 04:31:34;;;;;;;1.50;1.30;;;;;;;21.78;37.91;99744.75;4457073;28;20043;-49
2024/03/15 04:33:44;;;;;;;1.48;1.23;;;;;;;21.78;37.59;99745.59;4456292;28;20548;-49
2024/03/15 04:35:55;;;;;;;1.63;1.25;;;;;;;21.77;37.76;99746.78;4456712;28;20406;-48
2024/03/15 04:38:06;;;;;;;1.23;1.10;;;;;;;21.78;37.94;99747.63;4456738;28;20661;-48
2024/03/15 04:40:16;;;;;;;1.50;1.30;;;;;;;21.78;38.13;99744.75;4456984;28;20046;-48
2024/03/15 04:42:31;;;;;;;1.70;1.15;;;;;;;21.77;37.80;99746.78;4456616;28;20031;-48
2024/03/15 04:44:42;;;;;;;1.30;1.20;;;;;;;21.77;37.94;99743.91;4456494;28;20031;-48
2024/03/15 04:46:52;;;;;;;1.83;1.40;;;;;;;21.76;37.87;99739.41;4456486;28;20035;-47
2024/03/15 04:49:02;;;;;;;1.98;1.30;;;;;;;21.77;38.13;99737.38;4456662;28;20031;-47
2024/03/15 04:51:13;;;;;;;2.00;1.42;;;;;;;21.77;38.12;99740.25;4456487;28;20050;-47
2024/03/15 04:53:24;;;;;;;1.45;1.15;;;;;;;21.76;38.05;99730.78;4454790;28;20043;-47
2024/03/15 04:55:34;;;;;;;1.98;1.10;;;;;;;21.77;37.87;99728.75;4456361;28;20023;-47
2024/03/15 04:57:44;;;;;;;1.35;1.20;;;;;;;21.75;37.76;99732.03;4456547;28;20035;-48
2024/03/15 04:59:55;;;;;;;1.60;1.35;;;;;;;21.76;38.23;99733.66;4455664;28;20058;-49
2024/03/15 05:02:06;;;;;;;1.35;1.15;;;;;;;21.75;38.11;99728.28;4456692;28;20031;-48
2024/03/15 05:04:16;;;;;;;1.92;1.20;;;;;;;21.75;37.68;99725.41;4456179;28;20067;-48
2024/03/15 05:06:27;;;;;;;1.63;1.30;;;;;;;21.74;37.70;99730.31;4456440;28;20050;-47
2024/03/15 05:08:37;;;;;;;1.88;1.23;;;;;;;21.73;37.91;99737.28;4456628;28;20043;-48
2024/03/15 05:10:47;;;;;;;1.45;1.25;;;;;;;21.74;37.88;99730.31;4455900;28;20385;-49
2024/03/15 05:12:58;;;;;;;1.35;1.25;;;;;;;21.74;38.17;99736.06;4456447;28;20523;-49
2024/03/15 05:15:10;;;;;;;1.92;1.45;;;;;;;21.73;38.24;99728.69;4455891;28;20046;-48
2024/03/15 05:17:20;;;;;;;1.70;1.20;;;;;;;21.73;38.26;99722.94;4456169;28;20127;-48
2024/03/15 05:19:31;;;;;;;1.92;1.40;;;;;;;21.72;38.25;99724.13;4456136;28;21027;-49
2024/03/15 05:21:41;;;;;;;1.55;1.27;;;;;;;21.72;38.18;99726.19;4456094;28;20110;-47
2024/03/15 05:23:52;;;;;;;1.80;1.10;;;;;;;21.72;37.90;99723.31;4456118;28;20062;-48
2024/03/15 05:26:05;;;;;;;1.45;1.25;;;;;;;21.72;38.21;99726.19;4455569;28;22956;-48
2024/03/15 05:28:16;;;;;;;1.50;1.33;;;;;;;21.72;38.44;99727.00;4456129;28;20058;-49
2024/03/15 05:30:27;;;;;;;2.25;1.38;;;;;;;21.71;38.01;99728.25;4456184;28;20194;-48
2024/03/15 05:32:38;;;;;;;1.60;1.33;;;;;;;21.72;38.07;99721.25;4455988;28;20031;-47
2024/03/15 05:34:48;;;;;;;1.60;1.20;;;;;;;21.71;38.10;99716.75;4455445;28;20043;-49
2024/03/15 05:37:01;;;;;;;1.95;1.30;;;;;;;21.71;38.17;99718.78;4456195;28;20098;-48
2024/03/15 05:39:11;;;;;;;1.20;1.10;;;;;;;21.69;37.76;99722.06;4455653;28;20043;-48
2024/03/15 05:41:22;;;;;;;1.23;1.10;;;;;;;21.71;37.77;99722.50;4448671;28;20043;-47
2024/03/15 05:43:32;;;;;;;2.30;1.50;;;;;;;21.71;38.29;99725.38;4454712;28;20175;-48
2024/03/15 05:45:42;;;;;;;1.23;1.10;;;;;;;21.70;38.20;99728.63;4455292;28;20039;-48
2024/03/15 05:47:53;;;;;;;1.30;1.00;;;;;;;21.70;37.95;99717.97;4455121;28;20043;-47
2024/03/15 05:50:04;;;;;;;1.33;1.10;;;;;;;21.70;38.30;99722.91;4455950;28;20039;-47
2024/03/15 05:52:14;;;;;;;1.52;1.10;;;;;;;21.69;38.09;99721.25;4455945;28;20082;-48
2024/03/15 05:54:26;;;;;;;1.50;1.08;;;;;;;21.69;38.23;99727.81;4455242;28;20043;-48
2024/03/15 05:56:37;;;;;;;1.25;1.10;;;;;;;21.69;38.40;99733.53;4455638;28;20895;-48
2024/03/15 05:58:47;;;;;;;1.50;1.10;;;;;;;21.68;38.40;99729.03;4455867;28;20082;-49
2024/03/15 06:00:58;;;;;;;1.25;1.15;;;;;;;21.68;38.00;99734.78;4454904;28;20153;-47
2024/03/15 06:03:11;;;;;;;1.17;1.00;;;;;;;21.68;38.43;99731.06;4455576;28;21277;-48
2024/03/15 06:05:22;;;;;;;1.00;0.90;;;;;;;21.68;38.44;99731.91;4455338;28;20054;-48
2024/03/15 06:07:34;;;;;;;1.10;1.00;;;;;;;21.68;38.26;99731.91;4455391;28;20046;-48
2024/03/15 06:09:44;;;;;;;2.28;1.20;;;;;;;21.67;38.58;99736.00;4455164;28;20635;-51
2024/03/15 06:11:55;;;;;;;1.88;1.17;;;;;;;21.66;38.40;99728.59;4454643;28;20035;-48
2024/03/15 06:14:05;;;;;;;1.73;1.23;;;;;;;21.67;38.56;99736.00;4455010;28;20062;-47
2024/03/15 06:16:16;;;;;;;1.30;1.20;;;;;;;21.66;38.52;99745.81;4455263;28;20113;-48
2024/03/15 06:18:26;;;;;;;1.48;1.13;;;;;;;21.66;38.37;99754.44;4455424;28;20047;-47
2024/03/15 06:20:36;;;;;;;1.10;1.00;;;;;;;21.66;38.54;99751.56;4455405;28;20470;-48
2024/03/15 06:22:47;;;;;;;1.50;1.15;;;;;;;21.66;38.48;99756.50;4455192;28;20114;-47
2024/03/15 06:24:59;;;;;;;1.30;1.10;;;;;;;21.64;38.54;99751.16;4455324;28;20039;-48
2024/03/15 06:27:13;;;;;;;1.58;1.20;;;;;;;21.64;38.31;99756.06;4455231;28;20043;-48
2024/03/15 06:29:31;;;;;;;1.15;1.05;;;;;;;21.65;38.36;99760.59;4454804;28;20046;-49
2024/03/15 06:31:43;;;;;;;1.40;1.30;;;;;;;21.65;38.70;99769.19;4455128;28;20043;-49
2024/03/15 06:33:56;;;;;;;1.27;1.10;;;;;;;21.65;38.22;99767.16;4454539;28;20138;-49
2024/03/15 06:36:07;;;;;;;1.67;1.17;;;;;;;21.65;38.57;99767.16;4454928;28;20035;-48
2024/03/15 06:38:28;;;;;;;1.55;1.20;;;;;;;21.64;38.74;99771.25;4455235;28;20490;-48
2024/03/15 06:43:35;;;;;;;1.30;1.20;;;;;;;21.63;38.76;99775.34;4449527;28;20047;-47
2024/03/15 06:48:06;;;;;;;1.67;1.40;;;;;;;21.63;38.53;99774.50;4454855;28;20039;-49
2024/03/15 06:52:34;;;;;;;2.15;1.30;;;;;;;21.63;38.61;99768.75;4454844;28;20741;-47
2024/03/15 06:54:44;;;;;;;1.27;1.17;;;;;;;21.62;38.72;99770.81;4454626;28;20050;-48
2024/03/15 06:56:55;;;;;;;1.58;1.02;;;;;;;21.61;39.08;99777.78;4469642;28;20045;-48
2024/03/15 06:59:07;;;;;;;1.52;1.20;;;;;;;21.62;38.62;99779.44;4454908;28;20067;-48
2024/03/15 07:01:17;;;;;;;2.30;1.20;;;;;;;21.62;38.98;99772.88;4454729;28;20880;-49
2024/03/15 07:03:28;;;;;;;2.22;1.40;;;;;;;21.62;38.96;99778.59;4454943;28;20039;-48
2024/03/15 07:05:38;;;;;;;1.85;1.13;;;;;;;21.60;39.20;99781.88;4453478;28;20048;-47
2024/03/15 07:07:50;;;;;;;1.60;1.13;;;;;;;21.61;39.14;99780.63;4454580;28;20071;-49
2024/03/15 07:10:00;;;;;;;1.10;1.00;;;;;;;21.60;39.43;99787.63;4452897;28;20663;-47
2024/03/15 07:12:14;;;;;;;1.63;1.10;;;;;;;21.61;39.01;99782.72;4454603;28;20122;-47
2024/03/15 07:14:25;;;;;;;1.20;1.10;;;;;;;21.60;39.11;99787.63;4453820;28;20028;-48
2024/03/15 07:16:35;;;;;;;1.58;1.15;;;;;;;21.59;39.50;99788.84;4454666;28;20035;-48
2024/03/15 07:18:46;;;;;;;1.45;1.30;;;;;;;21.60;39.41;99784.75;4454503;28;20066;-47
2024/03/15 07:20:56;;;;;;;1.40;1.17;;;;;;;21.61;39.41;99794.19;4454267;28;20046;-49
2024/03/15 07:23:07;;;;;;;1.85;1.10;;;;;;;21.60;39.38;99793.34;4456615;28;20047;-48
2024/03/15 07:25:19;;;;;;;1.73;1.30;;;;;;;21.61;39.29;99799.94;4457341;28;20034;-48
2024/03/15 07:27:30;;;;;;;1.65;1.20;;;;;;;21.58;39.66;99798.66;4457751;28;20031;-48
2024/03/15 07:29:42;;;;;;;1.38;1.20;;;;;;;21.58;39.75;99801.53;4457516;28;20224;-48
2024/03/15 07:31:54;;;;;;;1.30;1.10;;;;;;;21.56;39.53;99809.75;4457606;28;20644;-49
2024/03/15 07:34:05;;;;;;;1.35;1.20;;;;;;;21.56;39.53;99801.13;4471793;28;20049;-47
2024/03/15 07:36:18;;;;;;;1.60;1.10;;;;;;;21.55;39.71;99810.13;4457646;28;20592;-47
2024/03/15 07:38:28;;;;;;;1.50;1.30;;;;;;;21.55;39.78;99808.06;4456027;28;20039;-49
2024/03/15 07:40:39;;;;;;;1.27;1.10;;;;;;;21.54;40.20;99806.44;4456164;28;20611;-48
2024/03/15 07:42:49;;;;;;;1.70;1.20;;;;;;;21.54;40.18;99811.34;4457540;28;20490;-50
2024/03/15 07:44:59;;;;;;;1.30;1.20;;;;;;;21.53;40.33;99810.50;4456648;28;20037;-48
2024/03/15 07:47:10;;;;;;;1.63;1.20;;;;;;;21.52;40.01;99805.97;4457408;28;20457;-48
2024/03/15 07:49:22;;;;;;;1.52;1.10;;;;;;;21.53;40.47;99810.50;4457400;28;20048;-47
2024/03/15 07:51:32;;;;;;;1.33;1.20;;;;;;;21.52;40.18;99814.59;4455671;28;20085;-49
2024/03/15 07:53:45;;;;;;;1.95;1.40;;;;;;;21.54;40.73;99820.78;4457450;28;20167;-48
2024/03/15 07:55:55;;;;;;;1.92;1.20;;;;;;;21.53;40.22;99819.09;4455503;28;20043;-48
2024/03/15 07:58:06;;;;;;;1.45;1.15;;;;;;;21.54;40.61;99826.53;4457249;28;20031;-48
2024/03/15 08:00:16;;;;;;;1.98;1.40;;;;;;;21.54;40.84;99822.81;4457064;28;20114;-48
2024/03/15 08:02:27;;;;;;;1.60;1.30;;;;;;;21.52;40.67;99820.34;4457251;28;20046;-48
2024/03/15 08:04:37;;;;;;;1.30;1.00;;;;;;;21.54;40.97;99828.56;4457101;28;20043;-49
2024/03/15 08:06:49;;;;;;;1.55;1.25;;;;;;;21.53;41.34;99821.19;4456851;28;20030;-48
2024/03/15 08:09:00;;;;;;;2.03;1.30;;;;;;;21.51;41.06;99818.69;4457183;28;20848;-49
2024/03/15 08:11:11;;;;;;;1.50;1.15;;;;;;;21.53;41.19;99815.44;4456535;28;20828;-48
2024/03/15 08:13:25;;;;;;;1.70;1.27;;;;;;;21.52;41.45;99819.50;4457346;28;20044;-47
2024/03/15 08:15:36;;;;;;;2.22;1.20;;;;;;;21.52;41.22;99817.47;4457042;28;20803;-47
2024/03/15 08:17:50;;;;;;;1.25;1.13;;;;;;;21.52;41.17;99814.59;4465342;28;20037;-47
2024/03/15 08:20:00;;;;;;;1.60;1.20;;;;;;;21.52;41.25;99814.59;4455473;28;20035;-47
2024/03/15 08:22:11;;;;;;;2.70;1.40;;;;;;;21.53;41.10;99818.31;4457111;28;20486;-48
2024/03/15 08:24:21;;;;;;;1.83;1.30;;;;;;;21.53;41.65;99816.25;4456896;28;20023;-47
2024/03/15 08:26:32;;;;;;;1.90;1.30;;;;;;;21.53;41.69;99813.38;4456524;28;20039;-47
2024/03/15 08:28:43;;;;;;;1.70;1.40;;;;;;;21.54;41.31;99814.19;4456651;28;20034;-48
2024/03/15 08:30:53;;;;;;;1.42;1.33;;;;;;;21.54;41.33;99817.91;4456534;28;21088;-47
2024/03/15 08:33:03;;;;;;;1.80;1.38;;;;;;;21.53;41.69;99815.44;4455995;28;20050;-49
2024/03/15 08:35:14;;;;;;;1.60;1.50;;;;;;;21.55;41.67;99818.75;4455831;28;20043;-49
2024/03/15 08:37:26;;;;;;;2.47;1.50;;;;;;;21.52;41.98;99814.59;4456826;28;20039;-48
2024/03/15 08:39:36;;;;;;;1.73;1.30;;;;;;;21.52;41.44;99820.34;4456700;28;20051;-48
2024/03/15 08:41:47;;;;;;;1.77;1.52;;;;;;;21.52;41.75;99820.34;4455149;28;20040;-48
2024/03/15 08:43:57;;;;;;;1.75;1.48;;;;;;;21.52;41.83;99814.59;4456449;28;20114;-48
2024/03/15 08:46:09;;;;;;;2.05;1.55;;;;;;;21.52;41.54;99819.50;4456176;28;20035;-48
2024/03/15 08:48:19;;;;;;;1.80;1.40;;;;;;;21.52;41.52;99822.38;4456264;28;20845;-48
2024/03/15 08:50:33;;;;;;;1.73;1.50;;;;;;;21.52;41.44;99811.72;4456199;28;20151;-49
2024/03/15 08:52:43;;;;;;;1.67;1.50;;;;;;;21.54;41.59;99812.16;4455918;28;20039;-47
2024/03/15 08:54:54;;;;;;;2.40;1.88;;;;;;;21.54;41.29;99826.53;4465077;23;20440;-55
2024/03/15 08:57:05;;;;;;;2.08;1.65;;;;;;;21.56;41.75;99826.97;4457300;28;20122;-51
2024/03/15 08:59:19;;;;;;;2.42;1.58;;;;;;;21.54;41.43;99825.69;4457535;28;20134;-54
2024/03/15 09:01:32;;;;;;;2.17;1.52;;;;;;;21.56;41.71;99826.97;4457452;28;20043;-51
2024/03/15 09:03:43;;;;;;;2.22;1.60;;;;;;;21.55;41.81;99833.91;4457488;28;20050;-55
2024/03/15 09:05:53;;;;;;;2.00;1.55;;;;;;;21.56;41.92;99831.88;4454912;28;20157;-53
2024/03/15 09:08:06;;;;;;;1.88;1.50;;;;;;;21.56;41.86;99829.00;4440793;28;20040;-51
2024/03/15 09:10:17;;;;;;;1.98;1.60;;;;;;;21.56;41.43;99829.00;4440559;28;20110;-54
2024/03/15 09:12:27;;;;;;;2.28;1.88;;;;;;;21.57;42.02;99830.66;4439717;28;20043;-53
2024/03/15 09:14:37;;;;;;;1.80;1.52;;;;;;;21.56;41.78;99832.72;4439178;28;22801;-55
2024/03/15 09:16:50;;;;;;;2.03;1.65;;;;;;;21.56;41.72;99832.72;4439214;28;20510;-55
2024/03/15 09:19:02;;;;;;;1.80;1.42;;;;;;;21.56;41.94;99835.59;4439220;28;20047;-53
2024/03/15 09:21:13;;;;;;;1.58;1.48;;;;;;;21.57;41.64;99831.47;4439746;28;20034;-55
2024/03/15 09:23:24;;;;;;;2.60;1.60;;;;;;;21.58;41.86;99840.94;4441143;28;20078;-54
2024/03/15 09:25:34;;;;;;;2.10;1.50;;;;;;;21.57;42.32;99837.22;4439828;28;20039;-54
2024/03/15 09:27:48;;;;;;;2.28;1.50;;;;;;;21.57;41.72;99839.25;4439986;28;20027;-56
2024/03/15 09:30:15;;;;;;;1.58;1.42;;;;;;;21.57;42.10;99839.25;4437851;28;20039;-55
2024/03/15 09:32:31;;;;;;;2.40;1.83;;;;;;;21.56;41.55;99838.44;4440252;28;20784;-52
2024/03/15 09:34:46;;;;;;;1.77;1.58;;;;;;;21.56;41.88;99847.06;4438903;28;20038;-56
2024/03/15 09:36:56;;;;;;;2.00;1.48;;;;;;;21.56;41.60;99849.09;4439663;28;20040;-55
2024/03/15 09:39:09;;;;;;;1.90;1.65;;;;;;;21.56;41.66;99847.06;4439386;28;20043;-57
2024/03/15 09:41:19;;;;;;;2.00;1.75;;;;;;;21.56;41.79;99843.38;4439602;28;20079;-54
2024/03/15 09:43:30;;;;;;;2.40;1.65;;;;;;;21.56;42.10;99844.19;4440010;28;20067;-56
2024/03/15 09:45:41;;;;;;;2.28;1.80;;;;;;;21.56;41.59;99838.44;4437670;28;20051;-57
2024/03/15 09:47:52;;;;;;;2.10;1.83;;;;;;;21.56;41.71;99841.31;4437377;28;20032;-57
2024/03/15 09:50:03;;;;;;;2.45;1.77;;;;;;;21.56;41.77;99844.19;4440055;28;20047;-57
2024/03/15 09:52:15;;;;;;;2.05;1.85;;;;;;;21.56;41.74;99849.94;4440124;28;20058;-55
2024/03/15 09:54:27;;;;;;;2.22;1.80;;;;;;;21.56;41.81;99844.19;4440102;28;20044;-56
2024/03/15 09:56:38;;;;;;;2.45;1.90;;;;;;;21.57;41.54;99856.50;4439046;28;20046;-56
2024/03/15 09:58:50;;;;;;;2.95;1.75;;;;;;;21.57;41.74;99850.75;4439489;28;20571;-56
2024/03/15 10:01:01;;;;;;;2.00;1.80;;;;;;;21.57;41.78;99850.75;4439666;28;20043;-56
2024/03/15 10:03:12;;;;;;;2.28;1.80;;;;;;;21.57;41.85;99857.31;4440263;28;20114;-56
2024/03/15 10:05:23;;;;;;;2.40;1.98;;;;;;;21.57;42.09;99862.22;4439191;28;20648;-55
2024/03/15 10:07:34;;;;;;;3.67;2.40;;;;;;;21.58;42.01;99867.59;4438317;28;20111;-56
2024/03/15 10:09:47;;;;;;;1.92;1.70;;;;;;;21.58;41.89;99864.72;4440262;28;20035;-55
2024/03/15 10:11:57;;;;;;;2.08;1.77;;;;;;;21.57;42.24;99871.69;4439488;28;20031;-56
2024/03/15 10:14:08;;;;;;;1.73;1.63;;;;;;;21.58;43.15;99879.06;4440083;28;20039;-56
2024/03/15 10:16:18;;;;;;;1.75;1.40;;;;;;;21.60;43.73;99878.69;4439707;28;20050;-56
2024/03/15 10:18:32;;;;;;;1.45;1.20;;;;;;;21.60;43.67;99878.69;4439248;28;20115;-55
2024/03/15 10:20:46;;;;;;;2.30;1.67;;;;;;;21.57;43.75;99871.69;4438939;28;20127;-56
2024/03/15 10:22:57;;;;;;;2.20;1.88;;;;;;;21.61;43.27;99875.41;4439452;28;20111;-56
2024/03/15 10:25:15;;;;;;;1.63;1.52;;;;;;;21.61;43.77;99875.41;4436767;28;20574;-56